sensor_id;sensor_type;location;lat;lon;timestamp;P1;durP1;ratioP1;P2;durP2;ratioP2
5217;SDS011;26539;51.064;6.346;2022-07-29T00:01:21;6.43;;;1.53;;
5217;SDS011;26539;51.064;6.346;2022-07-29T00:03:47;5.23;;;1.47;;
5217;SDS011;26539;51.064;6.346;2022-07-29T00:06:13;2.13;;;1.60;;
5217;SDS011;26539;51.064;6.346;2022-07-29T00:08:39;6.53;;;2.03;;
5217;SDS011;26539;51.064;6.346;2022-07-29T00:11:05;5.87;;;1.83;;
5217;SDS011;26539;51.064;6.346;2022-07-29T00:13:30;4.80;;;2.50;;
5217;SDS011;26539;51.064;6.346;2022-07-29T00:15:56;4.93;;;1.67;;
5217;SDS011;26539;51.064;6.346;2022-07-29T00:18:22;4.53;;;1.50;;
5217;SDS011;26539;51.064;6.346;2022-07-29T00:20:47;5.27;;;1.67;;
5217;SDS011;26539;51.064;6.346;2022-07-29T00:23:13;5.47;;;2.03;;
5217;SDS011;26539;51.064;6.346;2022-07-29T00:25:38;3.70;;;1.90;;
5217;SDS011;26539;51.064;6.346;2022-07-29T00:28:04;3.77;;;2.23;;
5217;SDS011;26539;51.064;6.346;2022-07-29T00:30:29;4.30;;;1.87;;
5217;SDS011;26539;51.064;6.346;2022-07-29T00:32:55;6.57;;;1.60;;
5217;SDS011;26539;51.064;6.346;2022-07-29T00:35:20;3.87;;;1.87;;
5217;SDS011;26539;51.064;6.346;2022-07-29T00:38:05;5.10;;;2.00;;
5217;SDS011;26539;51.064;6.346;2022-07-29T00:40:30;9.63;;;2.10;;
5217;SDS011;26539;51.064;6.346;2022-07-29T00:42:56;5.20;;;1.77;;
5217;SDS011;26539;51.064;6.346;2022-07-29T00:45:21;6.67;;;2.00;;
5217;SDS011;26539;51.064;6.346;2022-07-29T00:47:47;3.50;;;1.80;;
5217;SDS011;26539;51.064;6.346;2022-07-29T00:50:13;4.73;;;1.50;;
5217;SDS011;26539;51.064;6.346;2022-07-29T00:52:39;3.70;;;1.67;;
5217;SDS011;26539;51.064;6.346;2022-07-29T00:55:07;4.07;;;2.03;;
5217;SDS011;26539;51.064;6.346;2022-07-29T00:57:35;4.80;;;1.80;;
5217;SDS011;26539;51.064;6.346;2022-07-29T01:00:01;3.20;;;2.20;;
5217;SDS011;26539;51.064;6.346;2022-07-29T01:02:31;6.73;;;1.63;;
5217;SDS011;26539;51.064;6.346;2022-07-29T01:04:57;5.00;;;2.00;;
5217;SDS011;26539;51.064;6.346;2022-07-29T01:07:23;3.90;;;1.47;;
5217;SDS011;26539;51.064;6.346;2022-07-29T01:09:50;5.97;;;1.80;;
5217;SDS011;26539;51.064;6.346;2022-07-29T01:12:18;3.73;;;2.20;;
5217;SDS011;26539;51.064;6.346;2022-07-29T01:14:47;3.13;;;1.83;;
5217;SDS011;26539;51.064;6.346;2022-07-29T01:19:51;2.80;;;1.50;;
5217;SDS011;26539;51.064;6.346;2022-07-29T01:30:24;5.00;;;1.90;;
5217;SDS011;26539;51.064;6.346;2022-07-29T01:32:53;5.27;;;2.40;;
5217;SDS011;26539;51.064;6.346;2022-07-29T01:35:23;7.03;;;2.30;;
5217;SDS011;26539;51.064;6.346;2022-07-29T01:37:55;7.57;;;2.60;;
5217;SDS011;26539;51.064;6.346;2022-07-29T01:40:27;3.40;;;1.70;;
5217;SDS011;26539;51.064;6.346;2022-07-29T01:42:59;6.80;;;2.70;;
5217;SDS011;26539;51.064;6.346;2022-07-29T01:48:11;8.50;;;2.63;;
5217;SDS011;26539;51.064;6.346;2022-07-29T01:51:01;4.97;;;2.03;;
5217;SDS011;26539;51.064;6.346;2022-07-29T01:53:37;2.73;;;2.00;;
5217;SDS011;26539;51.064;6.346;2022-07-29T01:56:08;6.60;;;2.63;;
5217;SDS011;26539;51.064;6.346;2022-07-29T01:58:36;3.47;;;1.90;;
5217;SDS011;26539;51.064;6.346;2022-07-29T02:01:05;3.00;;;2.30;;
5217;SDS011;26539;51.064;6.346;2022-07-29T02:03:34;6.60;;;1.97;;
5217;SDS011;26539;51.064;6.346;2022-07-29T02:06:01;6.10;;;2.27;;
5217;SDS011;26539;51.064;6.346;2022-07-29T02:08:29;4.50;;;2.00;;
5217;SDS011;26539;51.064;6.346;2022-07-29T02:10:56;4.57;;;1.67;;
5217;SDS011;26539;51.064;6.346;2022-07-29T02:13:24;5.73;;;1.60;;
5217;SDS011;26539;51.064;6.346;2022-07-29T02:15:52;6.67;;;1.60;;
5217;SDS011;26539;51.064;6.346;2022-07-29T02:18:20;3.23;;;2.17;;
5217;SDS011;26539;51.064;6.346;2022-07-29T02:20:49;9.10;;;2.07;;
5217;SDS011;26539;51.064;6.346;2022-07-29T02:23:20;5.37;;;1.80;;
5217;SDS011;26539;51.064;6.346;2022-07-29T02:25:51;7.77;;;2.30;;
5217;SDS011;26539;51.064;6.346;2022-07-29T02:28:20;5.53;;;1.60;;
5217;SDS011;26539;51.064;6.346;2022-07-29T02:30:52;4.10;;;2.30;;
5217;SDS011;26539;51.064;6.346;2022-07-29T02:33:19;5.87;;;2.00;;
5217;SDS011;26539;51.064;6.346;2022-07-29T02:35:46;7.40;;;1.90;;
5217;SDS011;26539;51.064;6.346;2022-07-29T02:38:15;3.03;;;2.00;;
5217;SDS011;26539;51.064;6.346;2022-07-29T02:41:01;5.10;;;1.77;;
5217;SDS011;26539;51.064;6.346;2022-07-29T02:43:30;3.73;;;1.80;;
5217;SDS011;26539;51.064;6.346;2022-07-29T02:45:58;6.93;;;2.70;;
5217;SDS011;26539;51.064;6.346;2022-07-29T02:48:34;7.00;;;2.17;;
5217;SDS011;26539;51.064;6.346;2022-07-29T02:51:07;6.60;;;1.83;;
5217;SDS011;26539;51.064;6.346;2022-07-29T02:53:49;6.70;;;2.37;;
5217;SDS011;26539;51.064;6.346;2022-07-29T02:56:18;3.53;;;2.03;;
5217;SDS011;26539;51.064;6.346;2022-07-29T02:58:57;9.30;;;2.77;;
5217;SDS011;26539;51.064;6.346;2022-07-29T03:01:25;4.73;;;2.03;;
5217;SDS011;26539;51.064;6.346;2022-07-29T03:03:56;9.30;;;3.80;;
5217;SDS011;26539;51.064;6.346;2022-07-29T03:06:25;6.40;;;2.73;;
5217;SDS011;26539;51.064;6.346;2022-07-29T03:08:53;8.90;;;2.57;;
5217;SDS011;26539;51.064;6.346;2022-07-29T03:11:20;4.03;;;2.90;;
5217;SDS011;26539;51.064;6.346;2022-07-29T03:13:46;7.23;;;2.90;;
5217;SDS011;26539;51.064;6.346;2022-07-29T03:16:12;12.80;;;3.37;;
5217;SDS011;26539;51.064;6.346;2022-07-29T03:18:38;5.20;;;2.77;;
5217;SDS011;26539;51.064;6.346;2022-07-29T03:21:04;6.43;;;2.73;;
5217;SDS011;26539;51.064;6.346;2022-07-29T03:23:30;7.50;;;3.00;;
5217;SDS011;26539;51.064;6.346;2022-07-29T03:25:56;7.63;;;3.17;;
5217;SDS011;26539;51.064;6.346;2022-07-29T03:28:21;8.80;;;3.13;;
5217;SDS011;26539;51.064;6.346;2022-07-29T03:30:48;5.93;;;3.23;;
5217;SDS011;26539;51.064;6.346;2022-07-29T03:33:14;10.37;;;3.17;;
5217;SDS011;26539;51.064;6.346;2022-07-29T03:35:40;5.87;;;2.87;;
5217;SDS011;26539;51.064;6.346;2022-07-29T03:38:06;8.40;;;2.60;;
5217;SDS011;26539;51.064;6.346;2022-07-29T03:40:40;6.63;;;4.03;;
5217;SDS011;26539;51.064;6.346;2022-07-29T03:43:11;7.20;;;3.03;;
5217;SDS011;26539;51.064;6.346;2022-07-29T03:45:40;5.80;;;3.43;;
5217;SDS011;26539;51.064;6.346;2022-07-29T03:48:09;7.73;;;2.93;;
5217;SDS011;26539;51.064;6.346;2022-07-29T03:50:38;5.23;;;3.17;;
5217;SDS011;26539;51.064;6.346;2022-07-29T03:53:04;6.50;;;3.13;;
5217;SDS011;26539;51.064;6.346;2022-07-29T03:55:31;6.57;;;3.10;;
5217;SDS011;26539;51.064;6.346;2022-07-29T03:58:01;7.20;;;3.47;;
5217;SDS011;26539;51.064;6.346;2022-07-29T04:00:27;9.80;;;4.10;;
5217;SDS011;26539;51.064;6.346;2022-07-29T04:02:54;5.00;;;3.70;;
5217;SDS011;26539;51.064;6.346;2022-07-29T04:05:20;6.07;;;3.50;;
5217;SDS011;26539;51.064;6.346;2022-07-29T04:07:46;5.30;;;3.67;;
5217;SDS011;26539;51.064;6.346;2022-07-29T04:10:12;6.73;;;4.37;;
5217;SDS011;26539;51.064;6.346;2022-07-29T04:12:40;6.27;;;3.50;;
5217;SDS011;26539;51.064;6.346;2022-07-29T04:15:06;5.80;;;3.60;;
5217;SDS011;26539;51.064;6.346;2022-07-29T04:17:32;8.90;;;3.73;;
5217;SDS011;26539;51.064;6.346;2022-07-29T04:19:58;7.23;;;4.90;;
5217;SDS011;26539;51.064;6.346;2022-07-29T04:22:26;6.27;;;3.83;;
5217;SDS011;26539;51.064;6.346;2022-07-29T04:24:52;6.07;;;4.20;;
5217;SDS011;26539;51.064;6.346;2022-07-29T04:27:17;6.70;;;3.97;;
5217;SDS011;26539;51.064;6.346;2022-07-29T04:29:43;4.73;;;3.67;;
5217;SDS011;26539;51.064;6.346;2022-07-29T04:32:08;6.90;;;3.77;;
5217;SDS011;26539;51.064;6.346;2022-07-29T04:34:34;6.80;;;4.13;;
5217;SDS011;26539;51.064;6.346;2022-07-29T04:36:59;6.03;;;4.03;;
5217;SDS011;26539;51.064;6.346;2022-07-29T04:39:25;9.77;;;4.70;;
5217;SDS011;26539;51.064;6.346;2022-07-29T04:41:51;6.43;;;4.70;;
5217;SDS011;26539;51.064;6.346;2022-07-29T04:44:17;6.40;;;4.63;;
5217;SDS011;26539;51.064;6.346;2022-07-29T04:46:42;6.50;;;4.10;;
5217;SDS011;26539;51.064;6.346;2022-07-29T04:49:08;7.63;;;4.33;;
5217;SDS011;26539;51.064;6.346;2022-07-29T04:51:34;5.73;;;4.00;;
5217;SDS011;26539;51.064;6.346;2022-07-29T04:53:59;8.30;;;4.10;;
5217;SDS011;26539;51.064;6.346;2022-07-29T04:56:25;5.97;;;3.80;;
5217;SDS011;26539;51.064;6.346;2022-07-29T04:58:51;5.53;;;3.47;;
5217;SDS011;26539;51.064;6.346;2022-07-29T05:01:17;9.03;;;4.20;;
5217;SDS011;26539;51.064;6.346;2022-07-29T05:03:44;7.77;;;4.00;;
5217;SDS011;26539;51.064;6.346;2022-07-29T05:06:10;7.07;;;4.33;;
5217;SDS011;26539;51.064;6.346;2022-07-29T05:08:35;5.50;;;4.50;;
5217;SDS011;26539;51.064;6.346;2022-07-29T05:11:01;7.43;;;3.50;;
5217;SDS011;26539;51.064;6.346;2022-07-29T05:13:27;7.77;;;3.97;;
5217;SDS011;26539;51.064;6.346;2022-07-29T05:15:52;5.57;;;4.57;;
5217;SDS011;26539;51.064;6.346;2022-07-29T05:18:19;6.97;;;4.43;;
5217;SDS011;26539;51.064;6.346;2022-07-29T05:20:44;7.40;;;3.97;;
5217;SDS011;26539;51.064;6.346;2022-07-29T05:23:10;11.73;;;3.90;;
5217;SDS011;26539;51.064;6.346;2022-07-29T05:25:37;8.00;;;4.40;;
5217;SDS011;26539;51.064;6.346;2022-07-29T05:28:03;5.50;;;3.70;;
5217;SDS011;26539;51.064;6.346;2022-07-29T05:30:29;9.50;;;4.77;;
5217;SDS011;26539;51.064;6.346;2022-07-29T05:32:54;15.13;;;5.20;;
5217;SDS011;26539;51.064;6.346;2022-07-29T05:35:20;5.13;;;4.30;;
5217;SDS011;26539;51.064;6.346;2022-07-29T05:37:45;7.00;;;4.33;;
5217;SDS011;26539;51.064;6.346;2022-07-29T05:40:11;8.43;;;4.33;;
5217;SDS011;26539;51.064;6.346;2022-07-29T05:42:36;4.37;;;3.33;;
5217;SDS011;26539;51.064;6.346;2022-07-29T05:45:02;10.20;;;3.87;;
5217;SDS011;26539;51.064;6.346;2022-07-29T05:47:28;8.80;;;4.20;;
5217;SDS011;26539;51.064;6.346;2022-07-29T05:49:54;5.33;;;3.37;;
5217;SDS011;26539;51.064;6.346;2022-07-29T05:52:20;8.20;;;4.27;;
5217;SDS011;26539;51.064;6.346;2022-07-29T05:54:45;6.63;;;3.97;;
5217;SDS011;26539;51.064;6.346;2022-07-29T05:57:15;6.63;;;4.10;;
5217;SDS011;26539;51.064;6.346;2022-07-29T05:59:44;7.30;;;3.80;;
5217;SDS011;26539;51.064;6.346;2022-07-29T06:02:11;9.97;;;4.30;;
5217;SDS011;26539;51.064;6.346;2022-07-29T06:04:36;6.70;;;3.87;;
5217;SDS011;26539;51.064;6.346;2022-07-29T06:07:02;8.97;;;4.60;;
5217;SDS011;26539;51.064;6.346;2022-07-29T06:09:28;11.83;;;4.87;;
5217;SDS011;26539;51.064;6.346;2022-07-29T06:11:54;7.33;;;4.10;;
5217;SDS011;26539;51.064;6.346;2022-07-29T06:14:20;7.43;;;4.30;;
5217;SDS011;26539;51.064;6.346;2022-07-29T06:16:45;6.20;;;4.00;;
5217;SDS011;26539;51.064;6.346;2022-07-29T06:19:11;6.67;;;3.97;;
5217;SDS011;26539;51.064;6.346;2022-07-29T06:21:36;15.20;;;5.00;;
5217;SDS011;26539;51.064;6.346;2022-07-29T06:24:07;9.03;;;4.60;;
5217;SDS011;26539;51.064;6.346;2022-07-29T06:26:32;5.40;;;4.17;;
5217;SDS011;26539;51.064;6.346;2022-07-29T06:28:58;10.00;;;4.77;;
5217;SDS011;26539;51.064;6.346;2022-07-29T06:31:23;7.17;;;4.40;;
5217;SDS011;26539;51.064;6.346;2022-07-29T06:33:49;8.63;;;4.40;;
5217;SDS011;26539;51.064;6.346;2022-07-29T06:36:15;11.40;;;4.53;;
5217;SDS011;26539;51.064;6.346;2022-07-29T06:38:40;8.97;;;4.70;;
5217;SDS011;26539;51.064;6.346;2022-07-29T06:41:06;5.93;;;4.33;;
5217;SDS011;26539;51.064;6.346;2022-07-29T06:43:38;8.00;;;4.20;;
5217;SDS011;26539;51.064;6.346;2022-07-29T06:46:07;7.60;;;4.80;;
5217;SDS011;26539;51.064;6.346;2022-07-29T06:48:34;8.57;;;5.00;;
5217;SDS011;26539;51.064;6.346;2022-07-29T06:51:01;12.03;;;4.77;;
5217;SDS011;26539;51.064;6.346;2022-07-29T06:53:28;11.97;;;4.97;;
5217;SDS011;26539;51.064;6.346;2022-07-29T06:55:54;9.60;;;4.70;;
5217;SDS011;26539;51.064;6.346;2022-07-29T06:58:20;9.30;;;4.20;;
5217;SDS011;26539;51.064;6.346;2022-07-29T07:00:49;8.80;;;4.40;;
5217;SDS011;26539;51.064;6.346;2022-07-29T07:03:15;10.90;;;4.50;;
5217;SDS011;26539;51.064;6.346;2022-07-29T07:05:41;6.53;;;4.20;;
5217;SDS011;26539;51.064;6.346;2022-07-29T07:08:06;11.03;;;4.03;;
5217;SDS011;26539;51.064;6.346;2022-07-29T07:10:33;9.60;;;4.90;;
5217;SDS011;26539;51.064;6.346;2022-07-29T07:12:59;8.90;;;4.20;;
5217;SDS011;26539;51.064;6.346;2022-07-29T07:15:25;6.83;;;4.10;;
5217;SDS011;26539;51.064;6.346;2022-07-29T07:17:52;16.60;;;5.60;;
5217;SDS011;26539;51.064;6.346;2022-07-29T07:20:17;7.90;;;4.60;;
5217;SDS011;26539;51.064;6.346;2022-07-29T07:22:43;7.90;;;5.03;;
5217;SDS011;26539;51.064;6.346;2022-07-29T07:25:09;7.50;;;4.70;;
5217;SDS011;26539;51.064;6.346;2022-07-29T07:27:36;13.40;;;5.70;;
5217;SDS011;26539;51.064;6.346;2022-07-29T07:30:03;9.97;;;5.37;;
5217;SDS011;26539;51.064;6.346;2022-07-29T07:32:30;15.63;;;5.10;;
5217;SDS011;26539;51.064;6.346;2022-07-29T07:34:56;7.37;;;4.80;;
5217;SDS011;26539;51.064;6.346;2022-07-29T07:37:23;7.53;;;5.27;;
5217;SDS011;26539;51.064;6.346;2022-07-29T07:39:50;9.80;;;5.17;;
5217;SDS011;26539;51.064;6.346;2022-07-29T07:42:16;10.70;;;5.30;;
5217;SDS011;26539;51.064;6.346;2022-07-29T07:44:42;8.70;;;4.90;;
5217;SDS011;26539;51.064;6.346;2022-07-29T07:47:08;7.73;;;4.90;;
5217;SDS011;26539;51.064;6.346;2022-07-29T07:49:33;8.10;;;4.90;;
5217;SDS011;26539;51.064;6.346;2022-07-29T07:51:59;7.50;;;5.20;;
5217;SDS011;26539;51.064;6.346;2022-07-29T07:54:24;9.57;;;5.53;;
5217;SDS011;26539;51.064;6.346;2022-07-29T07:56:50;10.97;;;5.50;;
5217;SDS011;26539;51.064;6.346;2022-07-29T07:59:16;10.40;;;5.20;;
5217;SDS011;26539;51.064;6.346;2022-07-29T08:01:41;13.20;;;5.53;;
5217;SDS011;26539;51.064;6.346;2022-07-29T08:04:07;9.93;;;4.67;;
5217;SDS011;26539;51.064;6.346;2022-07-29T08:06:33;12.80;;;4.97;;
5217;SDS011;26539;51.064;6.346;2022-07-29T08:09:00;10.57;;;4.80;;
5217;SDS011;26539;51.064;6.346;2022-07-29T08:11:27;12.57;;;5.77;;
5217;SDS011;26539;51.064;6.346;2022-07-29T08:13:53;9.47;;;5.30;;
5217;SDS011;26539;51.064;6.346;2022-07-29T08:16:19;9.73;;;5.30;;
5217;SDS011;26539;51.064;6.346;2022-07-29T08:18:45;10.23;;;4.77;;
5217;SDS011;26539;51.064;6.346;2022-07-29T08:21:11;8.80;;;4.30;;
5217;SDS011;26539;51.064;6.346;2022-07-29T08:23:38;8.43;;;4.80;;
5217;SDS011;26539;51.064;6.346;2022-07-29T08:26:07;7.20;;;4.90;;
5217;SDS011;26539;51.064;6.346;2022-07-29T08:28:35;11.37;;;4.20;;
5217;SDS011;26539;51.064;6.346;2022-07-29T08:31:11;10.77;;;4.03;;
5217;SDS011;26539;51.064;6.346;2022-07-29T08:33:38;8.63;;;4.30;;
5217;SDS011;26539;51.064;6.346;2022-07-29T08:36:04;9.90;;;4.10;;
5217;SDS011;26539;51.064;6.346;2022-07-29T08:38:31;6.00;;;3.27;;
5217;SDS011;26539;51.064;6.346;2022-07-29T08:40:59;10.00;;;3.70;;
5217;SDS011;26539;51.064;6.346;2022-07-29T08:43:25;7.23;;;3.67;;
5217;SDS011;26539;51.064;6.346;2022-07-29T08:45:52;9.00;;;2.90;;
5217;SDS011;26539;51.064;6.346;2022-07-29T08:48:21;7.03;;;2.63;;
5217;SDS011;26539;51.064;6.346;2022-07-29T08:50:49;4.27;;;2.80;;
5217;SDS011;26539;51.064;6.346;2022-07-29T08:53:18;9.70;;;3.50;;
5217;SDS011;26539;51.064;6.346;2022-07-29T08:55:47;8.00;;;2.97;;
5217;SDS011;26539;51.064;6.346;2022-07-29T08:58:14;5.83;;;3.10;;
5217;SDS011;26539;51.064;6.346;2022-07-29T09:00:42;5.67;;;3.03;;
5217;SDS011;26539;51.064;6.346;2022-07-29T09:03:10;5.40;;;2.70;;
5217;SDS011;26539;51.064;6.346;2022-07-29T09:05:41;4.77;;;2.67;;
5217;SDS011;26539;51.064;6.346;2022-07-29T09:08:12;7.23;;;3.13;;
5217;SDS011;26539;51.064;6.346;2022-07-29T09:10:38;6.00;;;2.67;;
5217;SDS011;26539;51.064;6.346;2022-07-29T09:13:04;6.30;;;2.97;;
5217;SDS011;26539;51.064;6.346;2022-07-29T09:15:30;3.63;;;2.30;;
5217;SDS011;26539;51.064;6.346;2022-07-29T09:17:56;9.10;;;2.60;;
5217;SDS011;26539;51.064;6.346;2022-07-29T09:20:23;6.80;;;2.40;;
5217;SDS011;26539;51.064;6.346;2022-07-29T09:22:50;7.23;;;2.80;;
5217;SDS011;26539;51.064;6.346;2022-07-29T09:28:32;7.70;;;3.00;;
5217;SDS011;26539;51.064;6.346;2022-07-29T09:30:51;7.60;;;2.83;;
5217;SDS011;26539;51.064;6.346;2022-07-29T09:33:18;2.60;;;2.10;;
5217;SDS011;26539;51.064;6.346;2022-07-29T09:36:04;5.57;;;2.70;;
5217;SDS011;26539;51.064;6.346;2022-07-29T09:38:32;3.80;;;2.50;;
5217;SDS011;26539;51.064;6.346;2022-07-29T09:40:58;3.13;;;2.00;;
5217;SDS011;26539;51.064;6.346;2022-07-29T09:43:25;3.50;;;1.93;;
5217;SDS011;26539;51.064;6.346;2022-07-29T09:45:51;3.90;;;2.13;;
5217;SDS011;26539;51.064;6.346;2022-07-29T09:48:20;4.87;;;2.67;;
5217;SDS011;26539;51.064;6.346;2022-07-29T09:50:47;6.73;;;2.77;;
5217;SDS011;26539;51.064;6.346;2022-07-29T09:56:02;5.83;;;2.83;;
5217;SDS011;26539;51.064;6.346;2022-07-29T09:58:29;5.20;;;2.87;;
5217;SDS011;26539;51.064;6.346;2022-07-29T10:00:55;5.03;;;2.90;;
5217;SDS011;26539;51.064;6.346;2022-07-29T10:03:21;7.53;;;3.13;;
5217;SDS011;26539;51.064;6.346;2022-07-29T10:06:04;9.93;;;3.40;;
5217;SDS011;26539;51.064;6.346;2022-07-29T10:08:30;5.90;;;3.20;;
5217;SDS011;26539;51.064;6.346;2022-07-29T10:11:08;9.00;;;3.87;;
5217;SDS011;26539;51.064;6.346;2022-07-29T10:13:35;5.93;;;3.90;;
5217;SDS011;26539;51.064;6.346;2022-07-29T10:16:00;6.07;;;4.00;;
5217;SDS011;26539;51.064;6.346;2022-07-29T10:18:27;8.50;;;4.33;;
5217;SDS011;26539;51.064;6.346;2022-07-29T10:20:53;8.53;;;3.50;;
5217;SDS011;26539;51.064;6.346;2022-07-29T10:23:19;8.30;;;4.20;;
5217;SDS011;26539;51.064;6.346;2022-07-29T10:25:45;7.93;;;4.30;;
5217;SDS011;26539;51.064;6.346;2022-07-29T10:28:11;5.63;;;4.00;;
5217;SDS011;26539;51.064;6.346;2022-07-29T10:30:37;7.23;;;4.47;;
5217;SDS011;26539;51.064;6.346;2022-07-29T10:33:10;7.77;;;4.40;;
5217;SDS011;26539;51.064;6.346;2022-07-29T10:35:45;6.47;;;3.83;;
5217;SDS011;26539;51.064;6.346;2022-07-29T10:43:51;6.20;;;3.87;;
5217;SDS011;26539;51.064;6.346;2022-07-29T10:46:19;7.23;;;3.47;;
5217;SDS011;26539;51.064;6.346;2022-07-29T10:51:53;6.67;;;4.23;;
5217;SDS011;26539;51.064;6.346;2022-07-29T11:07:23;9.17;;;3.80;;
5217;SDS011;26539;51.064;6.346;2022-07-29T11:15:04;11.13;;;4.47;;
5217;SDS011;26539;51.064;6.346;2022-07-29T11:28:52;7.00;;;4.03;;
5217;SDS011;26539;51.064;6.346;2022-07-29T11:39:34;8.33;;;4.27;;
5217;SDS011;26539;51.064;6.346;2022-07-29T11:47:46;8.70;;;3.50;;
5217;SDS011;26539;51.064;6.346;2022-07-29T11:50:16;6.37;;;3.97;;
5217;SDS011;26539;51.064;6.346;2022-07-29T11:52:51;4.90;;;2.83;;
5217;SDS011;26539;51.064;6.346;2022-07-29T11:55:17;6.80;;;3.20;;
5217;SDS011;26539;51.064;6.346;2022-07-29T11:57:45;8.03;;;3.17;;
5217;SDS011;26539;51.064;6.346;2022-07-29T12:00:12;8.37;;;2.97;;
5217;SDS011;26539;51.064;6.346;2022-07-29T12:02:54;5.37;;;3.40;;
5217;SDS011;26539;51.064;6.346;2022-07-29T12:05:21;5.53;;;3.20;;
5217;SDS011;26539;51.064;6.346;2022-07-29T12:07:55;4.20;;;2.63;;
5217;SDS011;26539;51.064;6.346;2022-07-29T12:10:20;6.70;;;3.13;;
5217;SDS011;26539;51.064;6.346;2022-07-29T12:12:51;5.70;;;2.87;;
5217;SDS011;26539;51.064;6.346;2022-07-29T12:15:17;4.13;;;2.77;;
5217;SDS011;26539;51.064;6.346;2022-07-29T12:17:45;5.60;;;3.07;;
5217;SDS011;26539;51.064;6.346;2022-07-29T12:20:12;4.87;;;2.90;;
5217;SDS011;26539;51.064;6.346;2022-07-29T12:22:39;5.17;;;3.07;;
5217;SDS011;26539;51.064;6.346;2022-07-29T12:27:32;4.37;;;2.50;;
5217;SDS011;26539;51.064;6.346;2022-07-29T12:29:59;3.43;;;2.70;;
5217;SDS011;26539;51.064;6.346;2022-07-29T12:35:00;6.40;;;3.77;;
5217;SDS011;26539;51.064;6.346;2022-07-29T12:40:01;5.33;;;2.70;;
5217;SDS011;26539;51.064;6.346;2022-07-29T12:42:28;5.23;;;3.13;;
5217;SDS011;26539;51.064;6.346;2022-07-29T12:44:53;6.80;;;3.70;;
5217;SDS011;26539;51.064;6.346;2022-07-29T12:47:19;6.43;;;4.47;;
5217;SDS011;26539;51.064;6.346;2022-07-29T12:49:46;6.70;;;3.90;;
5217;SDS011;26539;51.064;6.346;2022-07-29T12:54:58;6.10;;;2.70;;
5217;SDS011;26539;51.064;6.346;2022-07-29T12:57:23;5.60;;;2.80;;
5217;SDS011;26539;51.064;6.346;2022-07-29T13:00:00;6.67;;;3.50;;
5217;SDS011;26539;51.064;6.346;2022-07-29T13:02:25;8.87;;;2.50;;
5217;SDS011;26539;51.064;6.346;2022-07-29T13:04:58;4.50;;;2.97;;
5217;SDS011;26539;51.064;6.346;2022-07-29T13:07:28;5.67;;;3.60;;
5217;SDS011;26539;51.064;6.346;2022-07-29T13:10:11;6.67;;;3.00;;
5217;SDS011;26539;51.064;6.346;2022-07-29T13:15:30;5.20;;;3.10;;
5217;SDS011;26539;51.064;6.346;2022-07-29T13:17:56;4.10;;;2.40;;
5217;SDS011;26539;51.064;6.346;2022-07-29T13:20:25;4.70;;;2.40;;
5217;SDS011;26539;51.064;6.346;2022-07-29T13:22:55;7.23;;;2.77;;
5217;SDS011;26539;51.064;6.346;2022-07-29T13:25:29;4.43;;;2.93;;
5217;SDS011;26539;51.064;6.346;2022-07-29T13:27:56;6.07;;;2.57;;
5217;SDS011;26539;51.064;6.346;2022-07-29T13:30:23;4.40;;;3.00;;
5217;SDS011;26539;51.064;6.346;2022-07-29T13:32:49;5.97;;;2.20;;
5217;SDS011;26539;51.064;6.346;2022-07-29T13:35:16;3.97;;;1.97;;
5217;SDS011;26539;51.064;6.346;2022-07-29T13:37:42;8.20;;;2.70;;
5217;SDS011;26539;51.064;6.346;2022-07-29T13:40:08;3.10;;;2.23;;
5217;SDS011;26539;51.064;6.346;2022-07-29T13:42:35;6.20;;;3.23;;
5217;SDS011;26539;51.064;6.346;2022-07-29T13:45:01;5.00;;;2.03;;
5217;SDS011;26539;51.064;6.346;2022-07-29T13:47:27;2.30;;;1.90;;
5217;SDS011;26539;51.064;6.346;2022-07-29T13:49:54;3.80;;;1.97;;
5217;SDS011;26539;51.064;6.346;2022-07-29T13:52:19;3.80;;;2.10;;
5217;SDS011;26539;51.064;6.346;2022-07-29T13:54:45;2.47;;;1.87;;
5217;SDS011;26539;51.064;6.346;2022-07-29T13:57:12;4.07;;;1.50;;
5217;SDS011;26539;51.064;6.346;2022-07-29T13:59:41;5.10;;;2.33;;
5217;SDS011;26539;51.064;6.346;2022-07-29T14:02:07;2.90;;;1.83;;
5217;SDS011;26539;51.064;6.346;2022-07-29T14:04:33;4.10;;;1.80;;
5217;SDS011;26539;51.064;6.346;2022-07-29T14:06:59;7.37;;;2.73;;
5217;SDS011;26539;51.064;6.346;2022-07-29T14:09:25;5.20;;;2.07;;
5217;SDS011;26539;51.064;6.346;2022-07-29T14:11:50;4.73;;;2.07;;
5217;SDS011;26539;51.064;6.346;2022-07-29T14:14:17;3.20;;;1.63;;
5217;SDS011;26539;51.064;6.346;2022-07-29T14:16:44;4.90;;;1.87;;
5217;SDS011;26539;51.064;6.346;2022-07-29T14:19:09;2.13;;;1.70;;
5217;SDS011;26539;51.064;6.346;2022-07-29T14:21:35;3.60;;;1.80;;
5217;SDS011;26539;51.064;6.346;2022-07-29T14:24:01;3.70;;;1.90;;
5217;SDS011;26539;51.064;6.346;2022-07-29T14:26:27;2.63;;;1.90;;
5217;SDS011;26539;51.064;6.346;2022-07-29T14:28:52;2.67;;;1.70;;
5217;SDS011;26539;51.064;6.346;2022-07-29T14:31:18;2.30;;;1.73;;
5217;SDS011;26539;51.064;6.346;2022-07-29T14:33:43;3.70;;;2.13;;
5217;SDS011;26539;51.064;6.346;2022-07-29T14:36:09;4.47;;;1.80;;
5217;SDS011;26539;51.064;6.346;2022-07-29T14:38:35;3.30;;;1.77;;
5217;SDS011;26539;51.064;6.346;2022-07-29T14:41:02;2.40;;;1.80;;
5217;SDS011;26539;51.064;6.346;2022-07-29T14:43:28;3.50;;;1.67;;
5217;SDS011;26539;51.064;6.346;2022-07-29T14:45:53;2.30;;;1.70;;
5217;SDS011;26539;51.064;6.346;2022-07-29T14:48:19;4.23;;;1.70;;
5217;SDS011;26539;51.064;6.346;2022-07-29T14:50:44;4.83;;;2.00;;
5217;SDS011;26539;51.064;6.346;2022-07-29T14:53:10;3.80;;;1.93;;
5217;SDS011;26539;51.064;6.346;2022-07-29T14:55:37;3.13;;;1.97;;
5217;SDS011;26539;51.064;6.346;2022-07-29T14:58:04;4.30;;;2.17;;
5217;SDS011;26539;51.064;6.346;2022-07-29T15:00:30;3.00;;;2.00;;
5217;SDS011;26539;51.064;6.346;2022-07-29T15:02:57;2.30;;;1.60;;
5217;SDS011;26539;51.064;6.346;2022-07-29T15:05:24;3.07;;;2.03;;
5217;SDS011;26539;51.064;6.346;2022-07-29T15:07:50;2.50;;;2.20;;
5217;SDS011;26539;51.064;6.346;2022-07-29T15:10:15;2.30;;;1.63;;
5217;SDS011;26539;51.064;6.346;2022-07-29T15:12:41;3.47;;;2.10;;
5217;SDS011;26539;51.064;6.346;2022-07-29T15:15:06;3.00;;;1.80;;
5217;SDS011;26539;51.064;6.346;2022-07-29T15:17:32;4.23;;;2.53;;
5217;SDS011;26539;51.064;6.346;2022-07-29T15:19:58;7.33;;;2.53;;
5217;SDS011;26539;51.064;6.346;2022-07-29T15:22:23;4.20;;;2.20;;
5217;SDS011;26539;51.064;6.346;2022-07-29T15:24:49;3.40;;;2.00;;
5217;SDS011;26539;51.064;6.346;2022-07-29T15:27:14;3.03;;;1.93;;
5217;SDS011;26539;51.064;6.346;2022-07-29T15:29:40;3.07;;;2.03;;
5217;SDS011;26539;51.064;6.346;2022-07-29T15:32:06;4.37;;;2.33;;
5217;SDS011;26539;51.064;6.346;2022-07-29T15:34:32;4.33;;;2.20;;
5217;SDS011;26539;51.064;6.346;2022-07-29T15:36:58;3.40;;;2.20;;
5217;SDS011;26539;51.064;6.346;2022-07-29T15:39:24;3.17;;;2.40;;
5217;SDS011;26539;51.064;6.346;2022-07-29T15:41:49;5.63;;;2.63;;
5217;SDS011;26539;51.064;6.346;2022-07-29T15:44:16;3.23;;;2.20;;
5217;SDS011;26539;51.064;6.346;2022-07-29T15:46:42;2.70;;;2.30;;
5217;SDS011;26539;51.064;6.346;2022-07-29T15:49:26;4.00;;;2.27;;
5217;SDS011;26539;51.064;6.346;2022-07-29T15:51:56;4.10;;;2.50;;
5217;SDS011;26539;51.064;6.346;2022-07-29T15:54:25;4.20;;;2.83;;
5217;SDS011;26539;51.064;6.346;2022-07-29T15:56:52;3.83;;;2.90;;
5217;SDS011;26539;51.064;6.346;2022-07-29T15:59:18;4.67;;;3.23;;
5217;SDS011;26539;51.064;6.346;2022-07-29T16:01:44;3.30;;;2.67;;
5217;SDS011;26539;51.064;6.346;2022-07-29T16:04:10;3.50;;;2.30;;
5217;SDS011;26539;51.064;6.346;2022-07-29T16:06:35;3.33;;;2.50;;
5217;SDS011;26539;51.064;6.346;2022-07-29T16:09:01;2.93;;;2.17;;
5217;SDS011;26539;51.064;6.346;2022-07-29T16:11:26;3.50;;;2.50;;
5217;SDS011;26539;51.064;6.346;2022-07-29T16:13:52;2.63;;;2.43;;
5217;SDS011;26539;51.064;6.346;2022-07-29T16:16:17;4.10;;;2.77;;
5217;SDS011;26539;51.064;6.346;2022-07-29T16:18:43;6.30;;;2.40;;
5217;SDS011;26539;51.064;6.346;2022-07-29T16:21:10;6.47;;;3.23;;
5217;SDS011;26539;51.064;6.346;2022-07-29T16:23:37;4.57;;;2.50;;
5217;SDS011;26539;51.064;6.346;2022-07-29T16:26:06;3.40;;;2.40;;